createdAt,value
2018-05-02T00:01:56.813Z,62.38
2018-05-02T00:04:25.146Z,38.85
2018-05-02T00:06:53.493Z,35.42
2018-05-02T00:09:21.853Z,26.98
2018-05-02T00:11:50.172Z,24.70
2018-05-02T00:14:18.512Z,17.23
2018-05-02T00:16:46.842Z,14.30
2018-05-02T00:19:15.181Z,11.35
2018-05-02T00:21:43.501Z,8.10
2018-05-02T00:24:11.840Z,6.85
2018-05-02T00:26:40.161Z,11.30
2018-05-02T00:29:08.500Z,8.55
2018-05-02T00:31:36.813Z,6.60
2018-05-02T00:34:05.236Z,4.97
2018-05-02T00:36:33.472Z,5.12
2018-05-02T00:39:01.808Z,6.65
2018-05-02T00:41:30.132Z,8.05
2018-05-02T00:43:58.473Z,11.45
2018-05-02T00:46:26.793Z,6.07
2018-05-02T00:49:07.049Z,5.03
2018-05-02T00:51:35.372Z,6.55
2018-05-02T00:54:03.700Z,6.20
2018-05-02T00:56:32.008Z,5.78
2018-05-02T00:59:00.344Z,5.22
2018-05-02T01:01:28.657Z,4.20
2018-05-02T01:03:57.000Z,4.93
2018-05-02T01:06:25.313Z,4.78
2018-05-02T01:08:53.657Z,3.70
2018-05-02T01:11:21.972Z,4.95
2018-05-02T01:13:51.321Z,3.95
2018-05-02T01:16:19.641Z,5.20
2018-05-02T01:18:47.981Z,2.97
2018-05-02T01:21:16.294Z,3.65
2018-05-02T01:23:44.632Z,4.12
2018-05-02T01:26:12.948Z,6.03
2018-05-02T01:28:41.286Z,5.10
2018-05-02T01:31:09.603Z,5.05
2018-05-02T01:33:37.938Z,4.05
2018-05-02T01:36:06.261Z,5.87
2018-05-02T01:38:34.600Z,4.87
2018-05-02T01:41:02.917Z,4.22
2018-05-02T01:43:31.252Z,2.83
2018-05-02T01:45:59.569Z,6.22
2018-05-02T01:48:27.904Z,3.03
2018-05-02T01:50:56.221Z,6.37
2018-05-02T01:53:24.557Z,4.68
2018-05-02T01:55:52.868Z,4.93
2018-05-02T01:58:21.209Z,6.20
2018-05-02T02:00:49.520Z,6.40
2018-05-02T02:03:17.861Z,4.32
2018-05-02T02:05:46.176Z,5.85
2018-05-02T02:08:14.508Z,7.90
2018-05-02T02:10:42.828Z,9.98
2018-05-02T02:13:11.181Z,8.80
2018-05-02T02:15:39.497Z,4.45
2018-05-02T02:18:07.876Z,4.78
2018-05-02T02:20:36.236Z,8.93
2018-05-02T02:23:04.552Z,5.65
2018-05-02T02:25:32.948Z,12.50
2018-05-02T02:28:01.338Z,6.28
2018-05-02T02:30:29.668Z,4.18
2018-05-02T02:32:57.985Z,8.13
2018-05-02T02:35:26.345Z,6.25
2018-05-02T02:37:54.729Z,8.93
2018-05-02T02:40:23.058Z,5.68
2018-05-02T02:42:51.409Z,6.50
2018-05-02T02:45:19.855Z,10.90
2018-05-02T02:47:48.176Z,8.45
2018-05-02T02:50:16.513Z,8.88
2018-05-02T02:52:44.839Z,8.65
2018-05-02T02:55:13.220Z,10.73
2018-05-02T02:57:41.495Z,4.40
2018-05-02T03:00:09.825Z,5.47
2018-05-02T03:02:38.140Z,3.53
2018-05-02T03:05:06.477Z,5.62
2018-05-02T03:07:34.801Z,11.38
2018-05-02T03:10:03.136Z,4.05
2018-05-02T03:12:31.454Z,4.78
2018-05-02T03:14:59.788Z,6.32
2018-05-02T03:17:28.101Z,9.90
2018-05-02T03:19:56.441Z,6.20
2018-05-02T03:22:24.757Z,7.00
2018-05-02T03:24:53.104Z,10.35
2018-05-02T03:27:21.429Z,7.70
2018-05-02T03:29:49.761Z,3.90
2018-05-02T03:32:18.078Z,6.80
2018-05-02T03:34:46.413Z,7.65
2018-05-02T03:37:14.724Z,7.43
2018-05-02T03:39:43.784Z,7.43
2018-05-02T03:42:12.101Z,4.07
2018-05-02T03:44:40.438Z,9.27
2018-05-02T03:47:08.748Z,6.40
2018-05-02T03:49:37.087Z,5.00
2018-05-02T03:52:05.414Z,7.55
2018-05-02T03:54:33.748Z,7.60
2018-05-02T03:57:02.064Z,8.52
2018-05-02T03:59:42.300Z,9.50
2018-05-02T04:02:22.308Z,11.75
2018-05-02T04:05:02.390Z,7.85
2018-05-02T04:07:30.704Z,9.98
2018-05-02T04:09:59.046Z,13.27
2018-05-02T04:12:27.364Z,9.07
2018-05-02T04:14:55.700Z,6.87
2018-05-02T04:17:24.049Z,10.55
2018-05-02T04:19:52.398Z,8.05
2018-05-02T04:22:20.709Z,6.28
2018-05-02T04:24:49.044Z,7.47
2018-05-02T04:27:17.459Z,10.20
2018-05-02T04:29:45.792Z,7.28
2018-05-02T04:32:14.122Z,12.00
2018-05-02T04:34:42.473Z,10.30
2018-05-02T04:37:10.913Z,10.50
2018-05-02T04:39:39.296Z,11.20
2018-05-02T04:42:07.616Z,7.17
2018-05-02T04:44:35.979Z,6.80
2018-05-02T04:47:04.306Z,8.30
2018-05-02T04:49:32.784Z,7.47
2018-05-02T04:52:01.233Z,12.50
2018-05-02T04:54:30.260Z,8.80
2018-05-02T04:56:58.827Z,9.43
2018-05-02T04:59:27.293Z,7.53
2018-05-02T05:01:55.989Z,7.90
2018-05-02T05:04:24.398Z,9.20
2018-05-02T05:06:52.763Z,18.60
2018-05-02T05:09:21.108Z,9.73
2018-05-02T05:11:49.520Z,11.03
2018-05-02T05:14:18.580Z,14.87
2018-05-02T05:16:46.946Z,8.50
2018-05-02T05:19:15.256Z,11.02
2018-05-02T05:21:43.608Z,17.45
2018-05-02T05:24:11.997Z,9.93
2018-05-02T05:26:40.356Z,14.30
2018-05-02T05:29:08.684Z,21.85
2018-05-02T05:31:37.040Z,20.50
2018-05-02T05:34:05.437Z,13.87
2018-05-02T05:36:33.772Z,24.33
2018-05-02T05:39:02.109Z,38.40
2018-05-02T05:41:30.490Z,22.60
2018-05-02T05:43:58.849Z,19.10
2018-05-02T05:46:27.204Z,17.03
2018-05-02T05:48:55.537Z,17.63
2018-05-02T05:51:23.893Z,16.50
2018-05-02T05:53:53.203Z,23.35
2018-05-02T05:56:21.556Z,14.20
2018-05-02T05:58:49.888Z,24.98
2018-05-02T06:01:18.250Z,18.27
2018-05-02T06:03:48.666Z,17.65
2018-05-02T06:06:17.022Z,10.57
2018-05-02T06:08:45.383Z,15.50
2018-05-02T06:11:13.728Z,11.10
2018-05-02T06:13:42.059Z,12.93
2018-05-02T06:17:19.424Z,16.37
2018-05-02T06:19:47.754Z,12.47
2018-05-02T06:22:16.128Z,15.90
2018-05-02T06:24:44.461Z,9.57
2018-05-02T06:27:12.835Z,10.20
2018-05-02T06:39:11.137Z,12.37
2018-05-02T06:41:39.484Z,10.80
2018-05-02T06:44:07.813Z,8.35
2018-05-02T06:46:36.160Z,6.27
2018-05-02T06:49:04.505Z,14.57
2018-05-02T06:51:32.857Z,7.00
2018-05-02T06:54:01.181Z,9.93
2018-05-02T06:56:29.533Z,14.77
2018-05-02T06:58:57.864Z,13.13
2018-05-02T07:01:26.216Z,6.70
2018-05-02T07:03:54.544Z,6.23
2018-05-02T07:06:22.891Z,5.80
2018-05-02T07:08:51.777Z,6.10
2018-05-02T07:11:21.816Z,7.35
2018-05-02T07:13:51.811Z,6.68
2018-05-02T07:16:20.161Z,8.33
2018-05-02T07:18:48.485Z,6.13
2018-05-02T07:21:16.837Z,7.00
2018-05-02T07:23:45.160Z,13.97
2018-05-02T07:26:13.511Z,4.20
2018-05-02T07:28:41.849Z,10.20
2018-05-02T07:31:10.200Z,7.65
2018-05-02T07:33:39.584Z,8.62
2018-05-02T07:36:07.940Z,5.23
2018-05-02T07:38:36.259Z,7.57
2018-05-02T07:41:04.588Z,3.87
2018-05-02T07:43:32.944Z,5.67
2018-05-02T07:46:01.277Z,4.87
2018-05-02T07:48:29.622Z,7.77
2018-05-02T07:50:57.959Z,6.55
2018-05-02T07:53:26.430Z,14.30
2018-05-02T07:55:54.752Z,7.77
2018-05-02T07:58:23.101Z,8.63
2018-05-02T08:00:51.434Z,4.20
2018-05-02T08:03:19.786Z,7.70
2018-05-02T08:05:48.109Z,8.03
2018-05-02T08:08:16.457Z,3.93
2018-05-02T08:10:44.781Z,4.03
2018-05-02T08:13:14.738Z,6.63
2018-05-02T08:15:43.064Z,11.53
2018-05-02T08:18:11.417Z,5.23
2018-05-02T08:20:39.748Z,6.12
2018-05-02T08:23:08.100Z,8.90
2018-05-02T08:25:36.437Z,24.23
2018-05-02T08:28:04.797Z,14.20
2018-05-02T08:30:33.125Z,4.43
2018-05-02T08:33:02.504Z,4.70
2018-05-02T08:35:30.832Z,7.37
2018-05-02T08:37:59.176Z,7.03
2018-05-02T08:40:27.504Z,3.47
2018-05-02T08:42:55.857Z,4.77
2018-05-02T08:45:24.176Z,5.77
2018-05-02T08:47:53.257Z,9.15
2018-05-02T08:50:21.584Z,8.20
2018-05-02T08:52:50.148Z,12.23
2018-05-02T08:55:18.468Z,4.70
2018-05-02T08:57:46.819Z,6.20
2018-05-02T09:00:15.153Z,9.70
2018-05-02T09:02:43.500Z,8.97
2018-05-02T09:05:11.828Z,4.53
2018-05-02T09:07:40.176Z,7.70
2018-05-02T09:10:08.499Z,7.15
2018-05-02T09:12:36.847Z,7.80
2018-05-02T09:15:05.175Z,11.27
2018-05-02T09:17:33.522Z,8.10
2018-05-02T09:20:01.853Z,12.97
2018-05-02T09:22:30.200Z,5.35
2018-05-02T09:24:58.524Z,5.97
2018-05-02T09:27:26.876Z,7.62
2018-05-02T09:29:55.195Z,4.00
2018-05-02T09:32:24.343Z,3.80
2018-05-02T09:34:52.674Z,7.07
2018-05-02T09:37:21.020Z,8.33
2018-05-02T09:39:49.348Z,6.05
2018-05-02T09:42:17.701Z,11.27
2018-05-02T09:44:46.065Z,11.15
2018-05-02T09:47:14.392Z,5.73
2018-05-02T09:49:42.740Z,4.47
2018-05-02T09:52:12.202Z,11.90
2018-05-02T09:54:40.552Z,6.63
2018-05-02T09:57:08.880Z,6.10
2018-05-02T09:59:37.224Z,9.03
2018-05-02T10:02:05.561Z,6.93
2018-05-02T10:04:33.981Z,8.77
2018-05-02T10:07:02.246Z,6.15
2018-05-02T10:09:30.596Z,10.82
2018-05-02T10:11:59.591Z,5.33
2018-05-02T10:14:27.932Z,7.33
2018-05-02T10:16:56.264Z,10.90
2018-05-02T10:19:24.612Z,7.70
2018-05-02T10:21:52.943Z,4.17
2018-05-02T10:24:21.296Z,9.57
2018-05-02T10:26:49.624Z,8.73
2018-05-02T10:29:17.969Z,7.30
2018-05-02T10:31:47.472Z,13.90
2018-05-02T10:34:15.820Z,9.70
2018-05-02T10:36:44.148Z,5.17
2018-05-02T10:39:12.500Z,3.95
2018-05-02T10:41:40.831Z,7.60
2018-05-02T10:44:09.185Z,6.70
2018-05-02T10:46:37.508Z,3.37
2018-05-02T10:49:05.856Z,5.60
2018-05-02T10:51:35.213Z,5.25
2018-05-02T10:54:03.563Z,4.60
2018-05-02T10:56:31.888Z,5.33
2018-05-02T10:59:00.236Z,3.45
2018-05-02T11:01:28.564Z,2.77
2018-05-02T11:03:56.920Z,12.52
2018-05-02T11:06:25.260Z,7.82
2018-05-02T11:08:53.613Z,6.05
2018-05-02T11:11:21.940Z,8.40
2018-05-02T11:13:50.288Z,10.03
2018-05-02T11:16:18.621Z,4.70
2018-05-02T11:18:46.973Z,9.82
2018-05-02T11:21:15.304Z,7.73
2018-05-02T11:23:43.644Z,10.83
2018-05-02T11:26:11.975Z,8.20
2018-05-02T11:28:40.328Z,8.65
2018-05-02T11:31:09.637Z,4.50
2018-05-02T11:33:37.988Z,5.60
2018-05-02T11:36:06.325Z,5.40
2018-05-02T11:38:34.672Z,7.63
2018-05-02T11:41:03.005Z,2.90
2018-05-02T11:43:31.360Z,6.68
2018-05-02T11:45:59.773Z,8.57
2018-05-02T11:48:28.092Z,4.50
2018-05-02T11:50:56.573Z,5.22
2018-05-02T11:53:24.896Z,7.33
2018-05-02T11:55:53.252Z,5.90
2018-05-02T11:58:21.581Z,3.17
2018-05-02T12:00:49.932Z,8.20
2018-05-02T12:03:18.256Z,3.37
2018-05-02T12:05:46.607Z,5.97
2018-05-02T12:08:14.941Z,4.55
2018-05-02T12:10:44.892Z,3.97
2018-05-02T12:13:13.216Z,5.33
2018-05-02T12:15:41.568Z,4.80
2018-05-02T12:18:09.956Z,7.68
2018-05-02T12:20:38.292Z,9.90
2018-05-02T12:23:06.625Z,5.87
2018-05-02T12:25:35.052Z,7.53
2018-05-02T12:28:03.416Z,9.60
2018-05-02T12:30:32.772Z,12.40
2018-05-02T12:33:01.110Z,5.20
2018-05-02T12:35:29.487Z,4.77
2018-05-02T12:37:57.780Z,7.07
2018-05-02T12:40:26.187Z,3.63
2018-05-02T12:42:54.548Z,5.87
2018-05-02T12:45:23.035Z,2.53
2018-05-02T12:47:51.428Z,8.70
2018-05-02T12:50:20.168Z,5.80
2018-05-02T12:52:48.493Z,3.67
2018-05-02T12:55:16.845Z,2.20
2018-05-02T12:57:45.175Z,2.33
2018-05-02T13:00:13.523Z,6.57
2018-05-02T13:02:42.828Z,6.17
2018-05-02T13:05:11.195Z,4.40
2018-05-02T13:07:39.512Z,5.47
2018-05-02T13:10:08.061Z,11.85
2018-05-02T13:12:36.384Z,5.63
2018-05-02T13:15:04.740Z,2.80
2018-05-02T13:17:33.077Z,3.30
2018-05-02T13:20:01.426Z,2.20
2018-05-02T13:22:29.748Z,4.22
2018-05-02T13:24:58.096Z,5.33
2018-05-02T13:27:26.419Z,4.95
2018-05-02T13:29:55.641Z,4.63
2018-05-02T13:32:23.964Z,8.60
2018-05-02T13:34:52.312Z,8.83
2018-05-02T13:37:20.651Z,8.32
2018-05-02T13:39:48.992Z,5.37
2018-05-02T13:42:17.316Z,5.12
2018-05-02T13:44:45.681Z,5.57
2018-05-02T13:47:14.013Z,2.22
2018-05-02T13:49:42.513Z,3.83
2018-05-02T13:52:10.844Z,4.13
2018-05-02T13:54:39.169Z,4.53
2018-05-02T13:57:07.521Z,3.00
2018-05-02T13:59:58.288Z,11.60
2018-05-02T14:02:26.613Z,6.82
2018-05-02T14:04:55.630Z,7.18
2018-05-02T14:07:23.985Z,14.83
2018-05-02T14:09:52.321Z,9.80
2018-05-02T14:12:20.673Z,2.60
2018-05-02T14:14:49.011Z,2.93
2018-05-02T14:17:17.357Z,2.20
2018-05-02T14:19:45.684Z,2.07
2018-05-02T14:22:14.032Z,4.72
2018-05-02T14:24:43.474Z,4.36
2018-05-02T14:27:11.834Z,4.60
2018-05-02T14:29:40.169Z,3.83
2018-05-02T14:32:08.525Z,12.68
2018-05-02T14:34:36.857Z,3.77
2018-05-02T14:37:05.216Z,6.72
2018-05-02T14:39:33.548Z,5.27
2018-05-02T14:42:01.904Z,15.52
2018-05-02T14:44:30.248Z,4.00
2018-05-02T14:46:58.601Z,5.03
2018-05-02T14:49:26.928Z,3.73
2018-05-02T14:51:55.403Z,4.40
2018-05-02T14:54:23.737Z,6.63
2018-05-02T14:56:52.149Z,5.10
2018-05-02T14:59:20.618Z,3.80
2018-05-02T15:01:50.530Z,3.90
2018-05-02T15:04:18.869Z,5.90
2018-05-02T15:06:47.222Z,3.47
2018-05-02T15:09:15.553Z,2.63
2018-05-02T15:11:43.896Z,3.53
2018-05-02T15:14:12.229Z,6.33
2018-05-02T15:16:40.577Z,8.33
2018-05-02T15:19:09.683Z,6.10
2018-05-02T15:21:39.200Z,4.53
2018-05-02T15:24:07.556Z,4.67
2018-05-02T15:26:35.904Z,4.40
2018-05-02T15:29:04.236Z,9.43
2018-05-02T15:31:32.641Z,5.70
2018-05-02T15:34:00.972Z,5.83
2018-05-02T15:36:29.333Z,4.95
2018-05-02T15:38:57.665Z,12.23
2018-05-02T15:41:26.016Z,4.63
2018-05-02T15:43:55.228Z,3.42
2018-05-02T15:46:23.590Z,6.50
2018-05-02T15:48:51.916Z,8.77
2018-05-02T15:51:20.273Z,8.67
2018-05-02T15:53:48.596Z,3.97
2018-05-02T15:56:16.949Z,4.22
2018-05-02T15:58:45.302Z,7.45
2018-05-02T16:01:14.286Z,20.63
2018-05-02T16:03:42.616Z,3.90
2018-05-02T16:06:10.973Z,4.13
2018-05-02T16:08:39.300Z,8.95
2018-05-02T16:11:07.649Z,7.27
2018-05-02T16:13:35.990Z,4.60
2018-05-02T16:16:04.309Z,8.57
2018-05-02T16:18:32.656Z,3.40
2018-05-02T16:21:01.075Z,7.12
2018-05-02T16:23:29.420Z,8.50
2018-05-02T16:25:57.745Z,10.30
2018-05-02T16:28:26.097Z,6.30
2018-05-02T16:30:54.433Z,5.30
2018-05-02T16:33:22.864Z,4.13
2018-05-02T16:35:51.125Z,8.67
2018-05-02T16:38:19.495Z,13.10
2018-05-02T16:40:48.924Z,9.84
2018-05-02T16:43:17.278Z,3.33
2018-05-02T16:45:45.668Z,9.43
2018-05-02T16:48:14.036Z,12.80
2018-05-02T16:50:42.365Z,8.73
2018-05-02T16:53:10.718Z,5.97
2018-05-02T16:55:39.049Z,3.83
2018-05-02T16:58:07.400Z,5.32
2018-05-02T17:00:35.734Z,7.83
2018-05-02T17:03:04.093Z,3.27
2018-05-02T17:05:32.426Z,5.00
2018-05-02T17:08:00.810Z,5.27
2018-05-02T17:10:29.128Z,6.63
2018-05-02T17:12:57.483Z,7.75
2018-05-02T17:15:25.813Z,7.18
2018-05-02T17:17:54.164Z,4.72
2018-05-02T17:20:23.377Z,6.60
2018-05-02T17:22:51.729Z,6.00
2018-05-02T17:25:20.084Z,7.33
2018-05-02T17:27:48.428Z,5.77
2018-05-02T17:30:16.756Z,7.22
2018-05-02T17:32:45.112Z,8.48
2018-05-02T17:35:13.441Z,6.07
2018-05-02T17:37:41.794Z,5.13
2018-05-02T17:40:11.729Z,5.63
2018-05-02T17:42:40.076Z,7.67
2018-05-02T17:45:08.405Z,4.60
2018-05-02T17:47:36.763Z,6.62
2018-05-02T17:50:05.085Z,9.87
2018-05-02T17:52:33.436Z,2.70
2018-05-02T17:55:01.769Z,4.87
2018-05-02T17:57:30.116Z,3.30
2018-05-02T17:59:59.436Z,11.30
2018-05-02T18:02:27.790Z,5.40
2018-05-02T18:04:56.116Z,4.70
2018-05-02T18:07:24.476Z,3.90
2018-05-02T18:09:52.801Z,5.90
2018-05-02T18:12:21.144Z,4.23
2018-05-02T18:14:49.481Z,6.60
2018-05-02T18:17:17.832Z,8.38
2018-05-02T18:19:46.350Z,6.57
2018-05-02T18:22:14.687Z,5.40
2018-05-02T18:24:43.028Z,5.63
2018-05-02T18:27:11.361Z,3.43
2018-05-02T18:29:39.708Z,7.37
2018-05-02T18:32:08.040Z,5.43
2018-05-02T18:34:36.389Z,4.00
2018-05-02T18:37:04.725Z,29.00
2018-05-02T18:39:34.949Z,14.30
2018-05-02T18:42:03.284Z,4.37
2018-05-02T18:44:31.630Z,4.30
2018-05-02T18:47:00.020Z,3.10
2018-05-02T18:49:28.396Z,9.50
2018-05-02T18:51:56.713Z,4.40
2018-05-02T18:54:25.059Z,6.70
2018-05-02T18:56:53.388Z,2.58
2018-05-02T18:59:22.709Z,5.35
2018-05-02T19:01:51.031Z,4.27
2018-05-02T19:04:19.388Z,7.27
2018-05-02T19:06:47.719Z,5.03
2018-05-02T19:09:16.074Z,7.10
2018-05-02T19:11:44.396Z,3.80
2018-05-02T19:14:12.753Z,6.00
2018-05-02T19:16:41.084Z,8.73
2018-05-02T19:19:16.095Z,5.65
2018-05-02T19:21:44.413Z,3.80
2018-05-02T19:24:13.711Z,5.30
2018-05-02T19:26:42.050Z,6.00
2018-05-02T19:29:10.392Z,8.67
2018-05-02T19:31:44.292Z,6.72
2018-05-02T19:34:12.632Z,5.70
2018-05-02T19:36:40.969Z,10.50
2018-05-02T19:39:09.316Z,3.97
2018-05-02T19:41:43.181Z,9.47
2018-05-02T19:44:11.599Z,5.15
2018-05-02T19:46:39.857Z,6.53
2018-05-02T19:49:08.216Z,10.05
2018-05-02T19:51:43.028Z,5.85
2018-05-02T19:54:11.398Z,3.70
2018-05-02T19:56:39.716Z,6.30
2018-05-02T19:59:08.059Z,5.53
2018-05-02T20:01:42.112Z,10.63
2018-05-02T20:04:10.467Z,6.30
2018-05-02T20:06:38.789Z,4.80
2018-05-02T20:12:18.834Z,9.70
2018-05-02T20:14:47.176Z,13.60
2018-05-02T20:17:15.508Z,3.57
2018-05-02T20:19:43.852Z,4.73
2018-05-02T20:22:12.185Z,7.32
2018-05-02T20:24:40.544Z,8.68
2018-05-02T20:30:18.657Z,5.03
2018-05-02T20:32:46.968Z,3.70
2018-05-02T20:35:15.308Z,5.63
2018-05-02T20:37:44.124Z,9.60
2018-05-02T20:40:12.469Z,7.90
2018-05-02T20:42:40.785Z,6.13
2018-05-02T20:45:09.124Z,9.47
2018-05-02T20:47:37.526Z,4.30
2018-05-02T20:50:05.788Z,8.00
2018-05-02T20:52:34.111Z,4.63
2018-05-02T20:55:02.565Z,7.67
2018-05-02T20:57:30.766Z,8.40
2018-05-02T20:59:59.105Z,4.87
2018-05-02T21:02:27.436Z,11.67
2018-05-02T21:04:55.768Z,8.53
2018-05-02T21:07:24.109Z,7.30
2018-05-02T21:09:52.452Z,10.73
2018-05-02T21:12:20.784Z,20.93
2018-05-02T21:14:49.141Z,12.97
2018-05-02T21:17:17.472Z,11.20
2018-05-02T21:19:45.828Z,16.70
2018-05-02T21:22:14.168Z,10.53
2018-05-02T21:24:44.232Z,5.93
2018-05-02T21:27:12.565Z,10.33
2018-05-02T21:29:40.917Z,6.40
2018-05-02T21:32:09.253Z,12.52
2018-05-02T21:34:37.599Z,13.60
2018-05-02T21:37:05.932Z,17.87
2018-05-02T21:39:34.289Z,7.25
2018-05-02T21:42:02.626Z,15.57
2018-05-02T21:44:31.864Z,4.70
2018-05-02T21:47:00.184Z,4.80
2018-05-02T21:49:28.528Z,2.90
2018-05-02T21:51:56.852Z,6.70
2018-05-02T21:54:25.208Z,11.77
2018-05-02T21:56:53.536Z,9.03
2018-05-02T21:59:21.861Z,6.50
2018-05-02T22:01:50.204Z,3.67
2018-05-02T22:04:18.511Z,4.37
2018-05-02T22:06:46.853Z,4.80
2018-05-02T22:09:15.173Z,6.27
2018-05-02T22:11:43.512Z,2.53
2018-05-02T22:14:11.842Z,5.97
2018-05-02T22:16:40.173Z,9.07
2018-05-02T22:19:08.488Z,4.27
2018-05-02T22:21:36.828Z,7.60
2018-05-02T22:24:05.140Z,6.77
2018-05-02T22:26:33.480Z,5.23
2018-05-02T22:29:01.805Z,8.10
2018-05-02T22:31:30.136Z,2.83
2018-05-02T22:33:58.453Z,8.10
2018-05-02T22:36:26.806Z,2.87
2018-05-02T22:38:55.116Z,6.10
2018-05-02T22:41:23.456Z,7.40
2018-05-02T22:43:51.780Z,4.65
2018-05-02T22:46:20.131Z,3.55
2018-05-02T22:48:48.452Z,4.97
2018-05-02T22:51:16.783Z,5.80
2018-05-02T22:53:45.145Z,11.30
2018-05-02T22:56:13.480Z,8.70
2018-05-02T22:58:41.800Z,4.97
2018-05-02T23:01:10.128Z,3.73
2018-05-02T23:03:38.448Z,4.73
2018-05-02T23:06:06.784Z,6.90
2018-05-02T23:08:35.113Z,7.80
2018-05-02T23:11:03.452Z,7.77
2018-05-02T23:13:31.771Z,3.17
2018-05-02T23:16:00.112Z,11.90
2018-05-02T23:18:28.431Z,6.33
2018-05-02T23:20:56.764Z,3.80
2018-05-02T23:23:25.088Z,5.50
2018-05-02T23:25:53.440Z,5.28
2018-05-02T23:28:21.765Z,7.43
2018-05-02T23:30:50.116Z,5.93
2018-05-02T23:33:18.452Z,10.60
2018-05-02T23:35:46.805Z,9.05
2018-05-02T23:38:15.124Z,3.43
2018-05-02T23:40:43.460Z,3.43
2018-05-02T23:43:11.789Z,5.55
2018-05-02T23:45:40.124Z,8.37
2018-05-02T23:48:08.452Z,9.07
2018-05-02T23:50:36.800Z,9.05
2018-05-02T23:53:05.117Z,6.73
2018-05-02T23:55:33.456Z,4.00
2018-05-02T23:58:01.776Z,6.53
